Time;durP1;ratioP1;P1;durP2;ratioP2;P2;SDS_P1;SDS_P2;PMS_P1;PMS_P2;Temp;Humidity;BMP_temperature;BMP_pressure;BME280_temperature;BME280_humidity;BME280_pressure;Samples;Min_cycle;Max_cycle;Signal;HPM_P1;HPM_P2
2022/10/06 00:00:08;;;;;;;5.68;3.35;;;12.90;99.90;;;;;;5009204;28;20112;-78
2022/10/06 00:02:35;;;;;;;7.22;3.30;;;12.80;99.90;;;;;;5005096;28;20026;-77
2022/10/06 00:05:13;;;;;;;5.43;2.92;;;12.80;99.90;;;;;;5007481;28;20057;-75
2022/10/06 00:07:38;;;;;;;5.28;2.83;;;12.80;99.90;;;;;;4998565;28;20038;-77
2022/10/06 00:10:06;;;;;;;7.22;3.17;;;12.70;99.90;;;;;;5020981;28;20089;-77
2022/10/06 00:12:58;;;;;;;4.47;2.35;;;12.70;99.90;;;;;;4997768;28;20031;-78
2022/10/06 00:15:30;;;;;;;4.45;2.65;;;12.70;99.90;;;;;;5002423;28;20042;-78
2022/10/06 00:17:56;;;;;;;6.93;2.83;;;12.70;99.90;;;;;;5006765;28;20025;-78
2022/10/06 00:20:23;;;;;;;5.75;2.08;;;12.60;99.90;;;;;;5003326;28;20081;-78
2022/10/06 00:22:49;;;;;;;4.18;2.47;;;12.60;99.90;;;;;;5006517;28;20018;-77
2022/10/06 00:25:19;;;;;;;4.88;2.83;;;12.60;99.90;;;;;;5004512;28;20032;-78
2022/10/06 00:27:48;;;;;;;4.45;2.47;;;12.60;99.90;;;;;;5020014;28;20376;-78
2022/10/06 00:30:19;;;;;;;4.90;2.53;;;12.50;99.90;;;;;;5002623;28;20026;-78
2022/10/06 00:32:56;;;;;;;5.00;2.75;;;12.50;99.90;;;;;;5008451;28;20506;-77
2022/10/06 00:35:22;;;;;;;4.35;2.63;;;12.50;99.90;;;;;;5003200;28;20053;-78
2022/10/06 00:37:54;;;;;;;5.72;2.70;;;12.50;99.90;;;;;;5022575;28;20021;-78
2022/10/06 00:40:27;;;;;;;6.68;2.67;;;12.40;99.90;;;;;;5005857;28;20110;-78
2022/10/06 00:42:57;;;;;;;8.27;2.63;;;12.40;99.90;;;;;;4999112;28;20498;-77
2022/10/06 00:45:42;;;;;;;3.35;2.33;;;12.40;99.90;;;;;;5005919;28;20383;-78
2022/10/06 00:48:29;;;;;;;4.85;2.40;;;12.40;99.90;;;;;;5007721;28;20021;-78
2022/10/06 00:50:58;;;;;;;6.28;2.45;;;12.40;99.90;;;;;;5017480;28;20026;-78
2022/10/06 00:53:29;;;;;;;5.00;2.50;;;12.30;99.90;;;;;;5001284;28;20036;-78
2022/10/06 00:56:01;;;;;;;5.47;2.60;;;12.30;99.90;;;;;;5001442;28;20026;-78
2022/10/06 00:58:28;;;;;;;5.45;2.42;;;12.30;99.90;;;;;;5003392;28;20038;-78
2022/10/06 01:00:55;;;;;;;4.95;2.58;;;12.30;99.90;;;;;;5031567;23;20049;-76
2022/10/06 01:03:38;;;;;;;6.78;2.28;;;12.20;99.90;;;;;;5006081;28;20112;-76
2022/10/06 01:06:04;;;;;;;6.75;2.30;;;12.30;99.90;;;;;;5019513;28;20033;-76
2022/10/06 01:08:42;;;;;;;7.30;2.28;;;12.30;99.90;;;;;;5004785;28;20026;-75
2022/10/06 01:11:13;;;;;;;4.28;2.28;;;12.20;99.90;;;;;;5003959;28;20474;-76
2022/10/06 01:13:42;;;;;;;7.50;2.42;;;12.30;99.90;;;;;;5019839;28;20084;-76
2022/10/06 01:16:36;;;;;;;4.40;2.03;;;12.20;99.90;;;;;;5008446;28;20022;-76
2022/10/06 01:19:27;;;;;;;;;;;12.20;99.90;;;;;;5000160;28;20034;-76
2022/10/06 01:21:56;;;;;;;6.70;2.05;;;12.20;99.90;;;;;;5002347;28;19933;-75
2022/10/06 01:24:22;;;;;;;9.70;2.17;;;12.20;99.90;;;;;;5003496;28;20104;-76
2022/10/06 01:26:52;;;;;;;4.97;2.13;;;12.20;99.90;;;;;;5002645;28;20502;-75
2022/10/06 01:29:18;;;;;;;5.20;2.08;;;12.20;99.90;;;;;;5000147;28;20038;-76
2022/10/06 01:31:56;;;;;;;8.10;2.42;;;12.10;99.90;;;;;;5016482;28;20398;-76
2022/10/06 01:34:21;;;;;;;9.45;4.20;;;12.10;99.90;;;;;;4994721;28;20447;-76
2022/10/06 01:36:47;;;;;;;7.63;2.58;;;12.10;99.90;;;;;;4999227;28;20060;-76
2022/10/06 01:39:16;;;;;;;6.18;2.45;;;12.10;99.90;;;;;;4996168;28;20014;-76
2022/10/06 01:41:41;;;;;;;3.88;2.10;;;12.10;99.90;;;;;;5006373;28;20033;-75
2022/10/06 01:44:10;;;;;;;6.55;2.13;;;12.00;99.90;;;;;;5005611;28;20094;-76
2022/10/06 01:46:35;;;;;;;3.50;2.20;;;12.00;99.90;;;;;;5010125;28;20153;-76
2022/10/06 01:49:07;;;;;;;4.55;2.17;;;12.00;99.90;;;;;;5004887;28;20068;-75
2022/10/06 01:51:33;;;;;;;4.68;2.20;;;12.00;99.90;;;;;;5006681;28;20084;-75
2022/10/06 01:53:58;;;;;;;4.43;1.67;;;12.00;99.90;;;;;;5016681;28;20486;-76
2022/10/06 01:56:24;;;;;;;5.18;2.17;;;12.00;99.90;;;;;;5006235;28;20030;-75
2022/10/06 01:58:53;;;;;;;6.95;2.30;;;12.00;99.90;;;;;;5008544;28;20494;-76
2022/10/06 02:01:25;;;;;;;4.53;2.13;;;12.00;99.90;;;;;;5001692;28;20045;-76
2022/10/06 02:03:50;;;;;;;3.70;1.98;;;11.90;99.90;;;;;;5007441;28;20032;-76
2022/10/06 02:06:16;;;;;;;5.07;2.20;;;11.90;99.90;;;;;;5008705;28;20093;-76
2022/10/06 02:08:45;;;;;;;6.68;2.45;;;11.90;99.90;;;;;;5003888;28;20586;-76
2022/10/06 02:11:11;;;;;;;4.63;2.72;;;11.90;99.90;;;;;;5003237;28;20030;-75
2022/10/06 02:13:37;;;;;;;4.15;2.17;;;11.80;99.90;;;;;;5003903;28;20519;-76
2022/10/06 02:16:12;;;;;;;6.32;2.80;;;11.80;99.90;;;;;;5005737;28;20052;-76
2022/10/06 02:18:38;;;;;;;5.88;2.75;;;11.70;99.90;;;;;;5009575;28;20062;-76
2022/10/06 02:21:04;;;;;;;4.63;2.13;;;11.70;99.90;;;;;;5004178;28;20073;-76
2022/10/06 02:23:33;;;;;;;8.02;2.72;;;11.70;99.90;;;;;;5001977;28;20022;-76
2022/10/06 02:26:00;;;;;;;5.93;2.85;;;11.70;99.90;;;;;;5001243;28;20030;-76
2022/10/06 02:28:26;;;;;;;7.22;3.00;;;11.70;99.90;;;;;;5014613;28;20454;-76
2022/10/06 02:31:00;;;;;;;5.90;3.05;;;11.70;99.90;;;;;;4999661;28;20395;-75
2022/10/06 02:33:25;;;;;;;5.97;3.30;;;11.70;99.90;;;;;;5003015;28;20440;-76
2022/10/06 02:35:55;;;;;;;6.82;3.08;;;11.70;99.90;;;;;;5005824;28;20145;-76
2022/10/06 02:38:24;;;;;;;4.50;2.50;;;11.70;99.90;;;;;;4999424;28;20037;-76
2022/10/06 02:40:50;;;;;;;4.38;2.35;;;11.60;99.90;;;;;;5020025;28;20028;-75
2022/10/06 02:43:16;;;;;;;5.82;2.50;;;11.70;99.90;;;;;;5003965;28;20029;-76
2022/10/06 02:45:58;;;;;;;11.02;2.58;;;11.70;99.90;;;;;;5009882;28;20435;-77
2022/10/06 02:48:25;;;;;;;3.80;2.22;;;11.70;99.90;;;;;;5005129;28;20116;-76
2022/10/06 02:50:57;;;;;;;3.30;2.20;;;11.70;99.90;;;;;;5004493;28;20491;-76
2022/10/06 02:53:27;;;;;;;4.18;2.13;;;11.60;99.90;;;;;;5027269;28;20026;-76
2022/10/06 02:56:16;;;;;;;3.85;2.30;;;11.60;99.90;;;;;;5003598;28;22127;-76
2022/10/06 02:58:43;;;;;;;5.97;2.08;;;11.60;99.90;;;;;;5003201;28;20049;-77
2022/10/06 03:01:13;;;;;;;3.22;1.80;;;11.60;99.90;;;;;;5002357;28;20123;-76
2022/10/06 03:03:40;;;;;;;4.53;2.47;;;11.60;99.90;;;;;;5003913;28;20029;-76
2022/10/06 03:06:20;;;;;;;2.95;2.17;;;11.60;99.90;;;;;;5007741;28;20546;-74
2022/10/06 03:09:00;;;;;;;6.63;2.25;;;11.60;99.90;;;;;;4999607;28;20470;-75
2022/10/06 03:11:32;;;;;;;6.85;2.60;;;11.60;99.90;;;;;;5005371;28;20017;-75
2022/10/06 03:13:58;;;;;;;7.18;2.85;;;11.60;99.90;;;;;;5009356;28;20022;-76
2022/10/06 03:16:30;;;;;;;7.30;2.83;;;11.60;99.90;;;;;;5000512;28;20037;-75
2022/10/06 03:18:57;;;;;;;5.07;2.00;;;11.60;99.90;;;;;;5008089;28;20053;-75
2022/10/06 03:21:25;;;;;;;7.50;2.58;;;11.60;99.90;;;;;;5003710;28;20034;-75
2022/10/06 03:23:52;;;;;;;8.93;2.83;;;11.60;99.90;;;;;;5006582;28;20493;-76
2022/10/06 03:26:21;;;;;;;11.82;2.72;;;11.60;99.90;;;;;;5012996;28;20507;-76
2022/10/06 03:28:54;;;;;;;6.80;2.58;;;11.60;99.90;;;;;;5002877;28;20030;-76
2022/10/06 03:31:20;;;;;;;5.38;2.38;;;11.60;99.90;;;;;;5000178;28;20506;-76
2022/10/06 03:33:50;;;;;;;8.77;2.63;;;11.60;99.90;;;;;;5005020;28;20030;-76
2022/10/06 03:36:26;;;;;;;4.47;2.00;;;11.50;99.90;;;;;;5001771;28;20038;-76
2022/10/06 03:38:52;;;;;;;8.30;2.58;;;11.50;99.90;;;;;;5012622;28;20517;-75
2022/10/06 03:41:26;;;;;;;5.78;2.50;;;11.50;99.90;;;;;;5016872;28;20050;-76
2022/10/06 03:44:10;;;;;;;6.13;2.90;;;11.50;99.90;;;;;;5019207;28;20792;-76
2022/10/06 03:46:42;;;;;;;7.63;2.75;;;11.50;99.90;;;;;;5004060;28;20557;-76
2022/10/06 03:49:10;;;;;;;6.90;2.88;;;11.50;99.90;;;;;;5006334;28;20030;-76
2022/10/06 03:51:38;;;;;;;7.57;2.35;;;11.50;99.90;;;;;;5005276;28;20038;-76
2022/10/06 03:54:09;;;;;;;14.77;2.83;;;11.40;99.90;;;;;;4997769;28;20101;-76
2022/10/06 03:56:38;;;;;;;7.47;2.80;;;11.40;99.90;;;;;;4999583;28;20623;-76
2022/10/06 03:59:12;;;;;;;11.15;3.15;;;11.40;99.90;;;;;;5000951;28;20118;-76
2022/10/06 04:01:40;;;;;;;;;;;11.40;99.90;;;;;;4997238;28;20499;-75
2022/10/06 04:04:06;;;;;;;6.60;3.03;;;11.30;99.90;;;;;;5004794;28;19909;-76
2022/10/06 04:06:33;;;;;;;8.98;3.10;;;11.30;99.90;;;;;;5003018;28;20092;-75
2022/10/06 04:09:10;;;;;;;7.25;2.72;;;11.30;99.90;;;;;;5005776;28;20065;-75
2022/10/06 04:11:38;;;;;;;5.20;2.28;;;11.30;99.90;;;;;;4999118;28;20026;-76
2022/10/06 04:14:09;;;;;;;5.68;2.65;;;11.30;99.90;;;;;;5002095;28;20030;-76
2022/10/06 04:16:40;;;;;;;5.05;2.80;;;11.20;99.90;;;;;;4995584;28;20446;-76
2022/10/06 04:19:11;;;;;;;8.98;2.95;;;11.20;99.90;;;;;;5001033;28;20022;-76
2022/10/06 04:21:42;;;;;;;5.68;2.45;;;11.30;99.90;;;;;;5018714;28;20026;-76
2022/10/06 04:24:11;;;;;;;7.97;2.75;;;11.30;99.90;;;;;;4993174;28;20027;-76
2022/10/06 04:26:44;;;;;;;8.13;3.45;;;11.30;99.90;;;;;;5016900;28;20470;-76
2022/10/06 04:29:10;;;;;;;8.20;3.55;;;11.30;99.90;;;;;;4996905;28;20025;-76
2022/10/06 04:31:41;;;;;;;8.23;3.15;;;11.40;99.90;;;;;;5000830;28;20687;-76
2022/10/06 04:34:20;;;;;;;5.55;3.70;;;11.40;99.90;;;;;;5003037;28;20038;-76
2022/10/06 04:36:48;;;;;;;8.27;3.83;;;11.40;99.90;;;;;;5022717;28;20434;-76
2022/10/06 04:39:14;;;;;;;7.72;3.50;;;11.40;99.90;;;;;;4995388;28;20408;-77
2022/10/06 04:41:45;;;;;;;6.00;3.38;;;11.40;99.90;;;;;;4997923;28;20029;-76
2022/10/06 04:44:29;;;;;;;8.75;3.40;;;11.40;99.90;;;;;;4993499;28;20029;-76
2022/10/06 04:46:55;;;;;;;7.47;3.20;;;11.40;99.90;;;;;;4995887;28;20481;-76
2022/10/06 04:49:27;;;;;;;9.48;3.95;;;11.40;99.90;;;;;;5003689;28;20149;-75
2022/10/06 04:51:52;;;;;;;8.27;4.00;;;11.40;99.90;;;;;;4999667;28;20033;-75
2022/10/06 04:54:21;;;;;;;7.20;3.55;;;11.40;99.90;;;;;;5003294;28;20036;-75
2022/10/06 04:56:50;;;;;;;8.90;3.78;;;11.40;99.90;;;;;;5016481;28;20408;-76
2022/10/06 04:59:15;;;;;;;9.60;3.55;;;11.40;99.90;;;;;;4999112;28;20026;-75
2022/10/06 05:01:44;;;;;;;6.78;3.63;;;11.40;99.90;;;;;;5001609;28;20041;-76
2022/10/06 05:04:10;;;;;;;7.00;3.22;;;11.40;99.90;;;;;;4991713;28;20050;-77
2022/10/06 05:06:38;;;;;;;5.43;3.30;;;11.50;99.90;;;;;;5007094;28;20438;-76
2022/10/06 05:09:14;;;;;;;5.25;3.13;;;11.50;99.90;;;;;;4997295;28;20031;-69
2022/10/06 05:11:40;;;;;;;6.20;2.70;;;11.50;99.90;;;;;;5009802;28;20073;-70
2022/10/06 05:14:06;;;;;;;6.82;3.40;;;11.50;99.90;;;;;;5010022;28;20057;-72
2022/10/06 05:16:36;;;;;;;8.00;3.10;;;11.50;99.90;;;;;;4997784;28;20054;-73
2022/10/06 05:19:11;;;;;;;11.30;3.60;;;11.40;99.90;;;;;;5015488;28;20030;-75
2022/10/06 05:21:40;;;;;;;10.13;3.70;;;11.50;99.90;;;;;;5013177;28;20022;-75
2022/10/06 05:24:12;;;;;;;12.32;4.32;;;11.50;99.90;;;;;;5003673;28;20058;-75
2022/10/06 05:26:37;;;;;;;10.48;3.90;;;11.40;99.90;;;;;;5009645;28;20905;-76
2022/10/06 05:29:06;;;;;;;11.63;3.88;;;11.40;99.90;;;;;;5012255;28;20041;-76
2022/10/06 05:31:37;;;;;;;10.57;4.57;;;11.40;99.90;;;;;;5008195;28;20477;-75
2022/10/06 05:34:03;;;;;;;9.80;4.45;;;11.40;99.90;;;;;;5014628;28;20618;-76
2022/10/06 05:36:30;;;;;;;10.98;4.13;;;11.40;99.90;;;;;;5008548;28;20450;-76
2022/10/06 05:38:56;;;;;;;11.32;4.25;;;11.40;99.90;;;;;;5008503;28;20014;-76
2022/10/06 05:41:28;;;;;;;9.48;4.38;;;11.40;99.90;;;;;;5006643;28;20434;-76
2022/10/06 05:43:57;;;;;;;12.00;5.00;;;11.50;99.90;;;;;;5004919;28;20029;-75
2022/10/06 05:46:30;;;;;;;16.13;5.35;;;11.40;99.90;;;;;;5007368;28;20558;-75
2022/10/06 05:48:57;;;;;;;10.02;4.60;;;11.40;99.90;;;;;;5004149;28;20023;-74
2022/10/06 05:51:25;;;;;;;11.90;5.07;;;11.40;99.90;;;;;;5005299;28;20425;-75
2022/10/06 05:53:51;;;;;;;9.82;4.18;;;11.40;99.90;;;;;;5008075;28;20084;-74
2022/10/06 05:56:25;;;;;;;10.93;3.75;;;11.40;99.90;;;;;;5001879;28;20476;-75
2022/10/06 05:58:52;;;;;;;13.10;4.38;;;11.40;99.90;;;;;;5020192;28;20076;-77
2022/10/06 06:01:22;;;;;;;9.63;3.53;;;11.40;99.90;;;;;;5006210;28;20034;-77
2022/10/06 06:04:10;;;;;;;13.70;4.47;;;11.40;99.90;;;;;;5008737;28;20041;-76
2022/10/06 06:06:37;;;;;;;12.60;5.22;;;11.40;99.90;;;;;;5010886;28;20030;-76
2022/10/06 06:09:11;;;;;;;12.23;5.00;;;11.50;99.90;;;;;;5008404;28;20026;-78
2022/10/06 06:11:39;;;;;;;14.50;5.30;;;11.50;99.90;;;;;;5003796;28;20089;-78
2022/10/06 06:14:10;;;;;;;14.82;5.45;;;11.50;99.90;;;;;;5004152;28;20038;-77
2022/10/06 06:16:37;;;;;;;10.65;4.60;;;11.50;99.90;;;;;;5002770;28;20570;-69
2022/10/06 06:19:04;;;;;;;10.85;4.90;;;11.60;99.90;;;;;;5005461;28;20028;-74
2022/10/06 06:21:30;;;;;;;12.07;4.65;;;11.70;99.90;;;;;;5002803;28;20469;-75
2022/10/06 06:23:56;;;;;;;12.30;4.78;;;11.70;99.90;;;;;;4998996;28;20484;-75
2022/10/06 06:26:27;;;;;;;10.60;5.10;;;11.80;99.90;;;;;;4998056;28;20395;-75
2022/10/06 06:28:59;;;;;;;11.05;4.90;;;11.80;99.90;;;;;;5002633;28;20049;-76
2022/10/06 06:31:33;;;;;;;11.68;5.38;;;11.90;99.90;;;;;;5001095;28;20419;-75
2022/10/06 06:34:01;;;;;;;11.52;4.90;;;11.90;99.90;;;;;;5003116;28;20030;-74
2022/10/06 06:36:40;;;;;;;11.80;5.32;;;11.90;99.90;;;;;;5002813;28;20022;-74
2022/10/06 06:39:07;;;;;;;9.88;5.40;;;12.00;99.90;;;;;;5008161;28;20018;-75
2022/10/06 06:41:39;;;;;;;12.80;4.75;;;12.10;99.90;;;;;;5003640;28;20030;-76
2022/10/06 06:44:20;;;;;;;15.13;6.40;;;12.10;99.90;;;;;;5003201;28;20030;-73
2022/10/06 06:46:48;;;;;;;12.52;5.10;;;12.20;99.90;;;;;;5017705;28;20026;-74
2022/10/06 06:49:17;;;;;;;11.48;4.95;;;12.30;99.90;;;;;;5001801;28;20037;-74
2022/10/06 06:51:49;;;;;;;8.45;4.88;;;12.30;99.90;;;;;;5019288;28;20470;-74
2022/10/06 06:54:18;;;;;;;12.77;5.55;;;12.40;99.90;;;;;;5003513;28;20392;-73
2022/10/06 06:56:47;;;;;;;10.93;4.93;;;12.40;99.90;;;;;;5005096;28;20036;-74
2022/10/06 06:59:13;;;;;;;12.45;5.28;;;12.50;99.90;;;;;;4998842;28;20491;-74
2022/10/06 07:01:48;;;;;;;12.13;5.30;;;12.60;99.90;;;;;;5012825;23;20061;-74
2022/10/06 07:04:15;;;;;;;12.52;5.53;;;12.60;99.90;;;;;;5003011;28;20022;-76
2022/10/06 07:06:43;;;;;;;10.10;5.45;;;12.70;99.90;;;;;;5009113;28;20630;-76
2022/10/06 07:09:09;;;;;;;10.02;5.38;;;12.80;99.90;;;;;;5004691;28;20045;-74
2022/10/06 07:11:54;;;;;;;12.35;5.85;;;12.80;99.90;;;;;;5006419;28;20044;-74
2022/10/06 07:14:21;;;;;;;11.52;5.28;;;12.90;99.90;;;;;;5001755;28;20038;-74
2022/10/06 07:25:31;;;;;;;10.10;3.75;;;13.10;99.90;;;;;;5012182;28;20033;-75
2022/10/06 07:28:03;;;;;;;6.55;3.35;;;13.10;99.90;;;;;;4976482;28;20597;-76
2022/10/06 07:30:32;;;;;;;9.23;3.13;;;13.10;99.90;;;;;;5007624;28;20112;-75
2022/10/06 07:33:04;;;;;;;5.40;3.20;;;13.20;99.90;;;;;;5009284;28;20023;-74
2022/10/06 07:35:29;;;;;;;7.25;3.67;;;13.20;99.90;;;;;;5000049;28;20034;-74
2022/10/06 07:38:01;;;;;;;6.70;3.45;;;13.30;99.90;;;;;;5005697;28;20033;-76
2022/10/06 07:40:38;;;;;;;6.15;3.75;;;13.30;99.90;;;;;;5002916;28;20105;-74
2022/10/06 07:43:10;;;;;;;6.45;3.35;;;13.40;99.90;;;;;;5006604;28;20044;-76
2022/10/06 07:45:43;;;;;;;6.68;3.65;;;13.40;99.90;;;;;;5007925;28;20048;-76
2022/10/06 07:48:16;;;;;;;7.47;3.50;;;13.50;99.90;;;;;;5005774;28;20030;-76
2022/10/06 07:50:44;;;;;;;9.30;3.83;;;13.50;99.90;;;;;;5008976;28;20040;-76
2022/10/06 07:53:11;;;;;;;5.03;3.03;;;13.50;99.90;;;;;;5001910;28;20120;-76
2022/10/06 07:55:43;;;;;;;9.50;3.78;;;13.60;99.90;;;;;;5004818;28;20057;-75
2022/10/06 07:58:16;;;;;;;6.30;3.00;;;13.60;99.90;;;;;;5001288;28;20599;-76
2022/10/06 08:00:48;;;;;;;9.27;4.30;;;13.60;99.90;;;;;;5003254;28;20045;-76
2022/10/06 08:03:16;;;;;;;6.80;2.90;;;13.60;99.90;;;;;;4999623;28;20037;-75
2022/10/06 08:05:46;;;;;;;7.20;3.05;;;13.60;99.90;;;;;;5005545;28;20024;-76
2022/10/06 08:08:18;;;;;;;11.43;3.03;;;13.70;99.90;;;;;;5000666;28;20176;-76
2022/10/06 08:10:52;;;;;;;7.88;3.75;;;13.70;99.90;;;;;;5001791;28;20029;-77
2022/10/06 08:13:18;;;;;;;7.15;3.78;;;13.70;99.90;;;;;;5006589;28;20026;-75
2022/10/06 08:15:44;;;;;;;10.93;4.05;;;13.70;99.90;;;;;;5015742;28;20033;-73
2022/10/06 08:18:09;;;;;;;9.93;4.13;;;13.80;99.90;;;;;;5002519;28;20113;-75
2022/10/06 08:20:39;;;;;;;12.00;4.53;;;13.80;99.90;;;;;;5004267;28;20030;-75
2022/10/06 08:23:11;;;;;;;9.05;4.45;;;13.80;99.90;;;;;;5004824;28;20027;-76
2022/10/06 08:25:42;;;;;;;10.40;4.40;;;13.80;99.90;;;;;;5000182;28;20080;-76
2022/10/06 08:28:11;;;;;;;8.43;4.28;;;13.90;99.90;;;;;;5021870;28;20033;-75
2022/10/06 08:30:37;;;;;;;9.82;4.75;;;13.90;99.90;;;;;;5003129;28;20080;-76
2022/10/06 08:33:04;;;;;;;9.70;4.07;;;13.90;99.90;;;;;;5005136;28;20105;-76
2022/10/06 08:35:39;;;;;;;12.27;4.63;;;13.90;99.90;;;;;;4997989;28;20490;-75
2022/10/06 08:38:05;;;;;;;10.43;4.32;;;14.00;99.90;;;;;;5001474;28;20088;-75
2022/10/06 08:40:31;;;;;;;10.82;4.18;;;14.00;99.90;;;;;;4998259;28;20022;-76
2022/10/06 08:42:59;;;;;;;9.93;3.97;;;14.10;99.90;;;;;;4997524;28;20136;-76
2022/10/06 08:45:33;;;;;;;7.15;3.65;;;14.10;99.90;;;;;;4998722;28;20105;-76
2022/10/06 08:48:16;;;;;;;10.68;3.85;;;14.10;99.90;;;;;;5013505;28;20053;-76
2022/10/06 08:51:09;;;;;;;10.68;3.22;;;14.20;99.90;;;;;;4997896;28;20030;-76
2022/10/06 08:53:48;;;;;;;32.38;5.75;;;14.20;99.90;;;;;;5000759;28;20486;-77
2022/10/06 08:56:23;;;;;;;28.95;5.88;;;14.30;99.90;;;;;;5003721;28;20033;-76
2022/10/06 08:58:57;;;;;;;19.98;4.97;;;14.30;99.90;;;;;;5015794;28;20042;-74
2022/10/06 09:01:32;;;;;;;12.50;3.85;;;14.40;99.90;;;;;;5002609;28;20109;-76
2022/10/06 09:04:04;;;;;;;13.23;4.50;;;14.40;99.90;;;;;;5005610;28;20026;-77
2022/10/06 09:06:41;;;;;;;20.85;5.07;;;14.50;99.90;;;;;;4999394;28;20022;-76
2022/10/06 09:09:20;;;;;;;25.58;6.15;;;14.60;99.90;;;;;;5000808;28;20357;-76
2022/10/06 09:11:53;;;;;;;13.50;5.57;;;14.70;99.90;;;;;;4997794;28;20030;-76
2022/10/06 09:14:27;;;;;;;15.88;6.43;;;14.70;99.90;;;;;;4993125;28;20042;-75
2022/10/06 09:17:00;;;;;;;14.18;7.32;;;14.80;99.90;;;;;;5006331;28;20040;-76
2022/10/06 09:19:51;;;;;;;15.45;7.85;;;14.90;99.90;;;;;;4999753;28;20026;-74
2022/10/06 09:22:19;;;;;;;14.38;7.75;;;14.90;99.90;;;;;;5004924;28;20116;-75
2022/10/06 09:24:54;;;;;;;15.52;7.40;;;15.00;99.90;;;;;;5002607;28;20069;-76
2022/10/06 09:27:20;;;;;;;14.77;8.15;;;15.10;99.90;;;;;;4997111;28;20026;-76
2022/10/06 09:29:49;;;;;;;15.52;7.82;;;15.20;99.90;;;;;;4998585;28;20429;-76
2022/10/06 09:32:17;;;;;;;14.52;8.13;;;15.20;99.90;;;;;;5001467;28;20038;-77
2022/10/06 09:34:48;;;;;;;19.60;7.13;;;15.30;99.90;;;;;;5000696;28;20049;-77
2022/10/06 09:37:14;;;;;;;14.68;6.63;;;15.40;99.90;;;;;;5006152;28;20027;-75
2022/10/06 09:39:49;;;;;;;11.75;5.88;;;15.40;99.90;;;;;;5002334;28;20029;-76
2022/10/06 09:42:20;;;;;;;11.25;5.53;;;15.50;99.90;;;;;;5022072;28;20089;-78
2022/10/06 09:44:49;;;;;;;12.70;6.00;;;15.50;99.90;;;;;;5013119;28;20025;-78
2022/10/06 09:47:21;;;;;;;9.55;3.90;;;15.60;99.90;;;;;;5004977;28;20033;-77
2022/10/06 09:50:26;;;;;;;9.32;4.20;;;15.70;99.90;;;;;;5004297;28;20029;-77
2022/10/06 09:52:59;;;;;;;7.57;3.70;;;15.80;99.90;;;;;;4997788;28;20083;-78
2022/10/06 09:55:27;;;;;;;7.90;3.95;;;15.80;99.90;;;;;;5004586;28;20030;-78
2022/10/06 09:58:01;;;;;;;9.05;4.10;;;15.90;99.90;;;;;;5003066;28;20034;-77
2022/10/06 10:00:31;;;;;;;7.85;4.25;;;16.00;99.90;;;;;;4999275;28;20026;-77
2022/10/06 10:03:03;;;;;;;9.85;4.28;;;16.10;99.90;;;;;;5021735;28;20069;-77
2022/10/06 10:05:34;;;;;;;7.38;3.47;;;16.20;99.90;;;;;;5009280;28;20030;-76
2022/10/06 10:08:23;;;;;;;7.90;3.80;;;16.30;99.90;;;;;;5010739;28;20053;-75
2022/10/06 10:12:23;;;;;;;9.07;4.03;;;16.40;99.90;;;;;;4985957;28;20044;-77
2022/10/06 10:13:57;;;;;;;8.05;3.65;;;16.50;99.90;;;;;;5007996;28;20080;-75
2022/10/06 10:16:33;;;;;;;10.50;4.20;;;16.60;99.90;;;;;;5007047;28;20459;-77
2022/10/06 10:19:04;;;;;;;7.00;2.45;;;16.70;99.90;;;;;;5009960;28;20033;-76
2022/10/06 10:21:32;;;;;;;12.88;5.25;;;16.80;99.90;;;;;;5023329;28;20044;-77
2022/10/06 10:24:02;;;;;;;7.22;3.33;;;16.80;99.90;;;;;;5003336;28;20030;-77
2022/10/06 10:26:53;;;;;;;8.98;2.58;;;16.90;99.90;;;;;;5008489;28;20048;-77
2022/10/06 10:29:44;;;;;;;5.60;1.80;;;16.90;99.90;;;;;;5009041;28;20026;-76
2022/10/06 10:32:20;;;;;;;8.55;2.38;;;17.00;99.90;;;;;;5000646;28;20046;-76
2022/10/06 10:35:18;;;;;;;6.85;2.58;;;17.10;99.90;;;;;;5005458;28;20352;-76
2022/10/06 10:38:00;;;;;;;7.40;1.92;;;17.10;99.90;;;;;;4952957;28;20069;-76
2022/10/06 10:40:34;;;;;;;7.22;2.88;;;17.20;99.90;;;;;;5000076;28;20046;-76
2022/10/06 10:43:22;;;;;;;;;;;17.20;99.90;;;;;;5007062;28;20431;-76
2022/10/06 10:45:58;;;;;;;6.78;2.28;;;17.20;99.90;;;;;;5014261;28;19912;-75
2022/10/06 10:48:32;;;;;;;6.88;1.80;;;17.20;99.90;;;;;;5004962;28;20030;-76
2022/10/06 10:51:07;;;;;;;5.18;2.15;;;17.10;99.90;;;;;;5006347;28;20105;-77
2022/10/06 10:53:49;;;;;;;4.38;1.67;;;17.10;99.90;;;;;;5008762;28;20037;-76
2022/10/06 10:56:18;;;;;;;3.25;1.50;;;17.00;99.90;;;;;;5007419;28;20092;-77
2022/10/06 10:58:47;;;;;;;3.83;1.35;;;17.10;99.90;;;;;;5006202;28;20368;-76
2022/10/06 11:01:31;;;;;;;4.78;1.63;;;17.10;99.90;;;;;;5007343;28;20045;-75
2022/10/06 11:03:59;;;;;;;3.42;1.30;;;17.10;99.90;;;;;;5005244;28;20022;-75
2022/10/06 11:06:45;;;;;;;8.57;1.60;;;17.20;99.90;;;;;;4997861;28;20026;-75
2022/10/06 11:10:02;;;;;;;3.97;1.60;;;17.30;99.90;;;;;;5006700;28;20602;-75
2022/10/06 11:13:04;;;;;;;6.97;1.67;;;17.30;99.90;;;;;;4952306;28;20046;-74
2022/10/06 11:15:42;;;;;;;3.85;1.48;;;17.30;99.90;;;;;;5002376;28;20379;-76
2022/10/06 11:18:23;;;;;;;4.57;1.40;;;17.40;99.90;;;;;;5008521;28;20040;-75
2022/10/06 11:20:51;;;;;;;3.40;1.75;;;17.40;99.90;;;;;;5002385;28;20088;-75
2022/10/06 11:23:28;;;;;;;3.90;1.70;;;17.40;99.90;;;;;;5008150;28;20080;-75
2022/10/06 11:26:34;;;;;;;8.82;1.58;;;17.40;99.90;;;;;;5003142;28;20025;-75
2022/10/06 11:29:25;;;;;;;5.28;1.50;;;17.40;99.90;;;;;;5007288;28;20083;-75
2022/10/06 11:32:12;;;;;;;2.83;1.13;;;17.30;99.90;;;;;;5007491;28;20029;-75
2022/10/06 11:34:42;;;;;;;3.05;1.50;;;17.30;99.90;;;;;;4994216;28;20026;-76
2022/10/06 11:37:33;;;;;;;4.10;1.67;;;17.40;99.90;;;;;;5008993;28;20368;-76
2022/10/06 11:40:31;;;;;;;7.28;1.90;;;17.40;99.90;;;;;;5013258;28;20018;-76
2022/10/06 11:43:11;;;;;;;4.97;1.65;;;17.40;99.90;;;;;;5002831;28;20033;-76
2022/10/06 11:45:49;;;;;;;6.75;1.77;;;17.40;99.90;;;;;;5049120;28;20028;-75
2022/10/06 11:48:28;;;;;;;6.53;1.90;;;17.50;99.90;;;;;;5044862;28;20029;-75
2022/10/06 11:51:22;;;;;;;4.60;1.90;;;17.60;99.90;;;;;;5051095;28;20582;-76
2022/10/06 11:53:51;;;;;;;2.95;1.50;;;17.50;99.90;;;;;;5053333;28;20489;-76
2022/10/06 11:56:17;;;;;;;10.23;1.90;;;17.60;99.90;;;;;;5043424;28;20044;-76
2022/10/06 11:58:55;;;;;;;7.13;1.48;;;17.60;99.90;;;;;;5050983;28;20127;-75
2022/10/06 12:01:30;;;;;;;6.47;1.55;;;17.70;99.90;;;;;;5033290;28;20061;-76
2022/10/06 12:04:12;;;;;;;3.75;1.65;;;17.70;99.90;;;;;;5033118;28;20112;-76
2022/10/06 12:06:41;;;;;;;4.72;1.52;;;17.80;99.90;;;;;;5033102;28;20040;-76
2022/10/06 12:09:25;;;;;;;3.70;1.35;;;17.80;99.90;;;;;;5033163;28;20307;-76
2022/10/06 12:12:13;;;;;;;5.65;1.73;;;17.80;99.90;;;;;;5031589;28;20051;-75
2022/10/06 12:15:09;;;;;;;5.10;1.85;;;17.80;99.90;;;;;;5031167;28;20041;-77
2022/10/06 12:17:56;;;;;;;7.38;1.65;;;17.80;99.90;;;;;;5053722;28;20032;-77
2022/10/06 12:20:52;;;;;;;6.75;2.08;;;17.80;99.90;;;;;;5048676;28;20025;-77
2022/10/06 12:23:35;;;;;;;8.65;2.65;;;17.80;99.90;;;;;;5049227;28;20056;-77
2022/10/06 12:26:20;;;;;;;4.88;1.80;;;17.80;99.90;;;;;;5043231;28;20028;-77
2022/10/06 12:29:35;;;;;;;5.22;1.65;;;17.80;99.90;;;;;;5051718;28;20021;-76
2022/10/06 12:32:14;;;;;;;3.50;1.75;;;17.70;99.90;;;;;;5006420;28;20041;-76
2022/10/06 12:34:55;;;;;;;7.47;1.85;;;17.70;99.90;;;;;;5049862;28;20135;-76
2022/10/06 12:37:38;;;;;;;4.40;1.58;;;17.70;99.90;;;;;;5051646;28;20029;-76
2022/10/06 12:40:47;;;;;;;8.55;1.75;;;17.70;99.90;;;;;;5044918;28;20028;-75
2022/10/06 12:43:16;;;;;;;4.40;1.35;;;17.70;99.90;;;;;;5048188;28;20013;-76
2022/10/06 12:45:52;;;;;;;5.38;1.45;;;17.70;99.90;;;;;;5041679;28;20354;-76
2022/10/06 12:48:37;;;;;;;8.50;1.60;;;17.60;99.90;;;;;;5047778;28;20031;-76
2022/10/06 12:51:11;;;;;;;6.43;2.10;;;17.60;99.90;;;;;;5038632;28;20432;-76
2022/10/06 12:53:55;;;;;;;5.70;1.77;;;17.60;99.90;;;;;;5045267;28;20032;-76
2022/10/06 12:56:25;;;;;;;;;;;17.60;99.90;;;;;;5042640;28;20573;-76
2022/10/06 12:58:54;;;;;;;3.47;1.65;;;17.70;99.90;;;;;;5049963;28;19920;-76
2022/10/06 13:01:21;;;;;;;4.35;1.48;;;17.70;99.90;;;;;;5059054;22;20076;-84
2022/10/06 13:03:49;;;;;;;5.57;1.65;;;17.80;99.90;;;;;;5038541;28;20026;-86
2022/10/06 13:06:20;;;;;;;6.20;1.88;;;17.90;99.90;;;;;;5021079;28;20132;-90
2022/10/06 13:09:21;;;;;;;5.70;1.42;;;18.00;99.90;;;;;;5024216;28;20022;-84
2022/10/06 13:11:48;;;;;;;4.68;1.55;;;18.10;99.90;;;;;;5022364;28;20038;-85
2022/10/06 13:14:14;;;;;;;8.95;1.30;;;18.20;99.90;;;;;;5038000;23;20025;-77
2022/10/06 13:16:50;;;;;;;5.00;1.50;;;18.20;99.90;;;;;;5011555;28;20410;-78
2022/10/06 13:19:27;;;;;;;5.43;1.77;;;18.10;99.90;;;;;;5008329;28;20371;-77
2022/10/06 13:22:01;;;;;;;4.63;1.48;;;18.10;99.90;;;;;;5005112;28;20474;-78
2022/10/06 13:24:27;;;;;;;5.43;1.52;;;18.10;99.90;;;;;;5023096;28;20109;-78